createdAt,value
2017-11-24T00:02:12.471Z,13.20
2017-11-24T00:04:40.744Z,13.20
2017-11-24T00:07:08.983Z,13.10
2017-11-24T00:09:37.260Z,13.10
2017-11-24T00:12:05.514Z,13.10
2017-11-24T00:14:33.786Z,13.00
2017-11-24T00:17:02.028Z,13.10
2017-11-24T00:19:31.052Z,13.10
2017-11-24T00:21:59.296Z,13.00
2017-11-24T00:24:28.318Z,13.00
2017-11-24T00:26:57.333Z,13.00
2017-11-24T00:29:25.614Z,12.90
2017-11-24T00:31:53.851Z,13.00
2017-11-24T00:34:22.126Z,13.00
2017-11-24T00:36:50.363Z,12.90
2017-11-24T00:39:18.627Z,12.90
2017-11-24T00:41:46.868Z,12.90
2017-11-24T00:44:15.920Z,12.80
2017-11-24T00:46:44.176Z,12.70
2017-11-24T00:49:13.203Z,12.70
2017-11-24T00:51:41.465Z,12.70
2017-11-24T00:54:09.736Z,12.70
2017-11-24T00:56:38.749Z,12.70
2017-11-24T00:59:07.084Z,12.70
2017-11-24T01:01:35.306Z,12.80
2017-11-24T01:04:03.585Z,12.80
2017-11-24T01:06:31.835Z,12.80
2017-11-24T01:09:01.631Z,12.70
2017-11-24T01:11:29.887Z,12.70
2017-11-24T01:13:58.160Z,12.80
2017-11-24T01:16:26.404Z,12.80
2017-11-24T01:18:55.438Z,12.90
2017-11-24T01:21:23.684Z,12.90
2017-11-24T01:23:52.716Z,12.90
2017-11-24T01:26:20.978Z,12.90
2017-11-24T01:28:49.996Z,12.90
2017-11-24T01:31:18.256Z,12.90
2017-11-24T01:33:47.284Z,13.00
2017-11-24T01:36:15.528Z,12.90
2017-11-24T01:38:44.584Z,13.00
2017-11-24T01:41:12.926Z,12.90
2017-11-24T01:43:41.197Z,13.00
2017-11-24T01:46:10.217Z,12.90
2017-11-24T01:48:38.471Z,12.90
2017-11-24T01:51:07.487Z,12.80
2017-11-24T01:53:35.755Z,12.80
2017-11-24T01:56:04.764Z,12.80
2017-11-24T01:58:33.072Z,12.80
2017-11-24T02:01:01.344Z,12.80
2017-11-24T02:03:29.608Z,12.90
2017-11-24T02:05:57.859Z,12.90
2017-11-24T02:08:26.204Z,12.90
2017-11-24T02:10:54.447Z,12.90
2017-11-24T02:13:22.725Z,12.90
2017-11-24T02:15:51.751Z,12.90
2017-11-24T02:18:20.008Z,12.90
2017-11-24T02:20:49.033Z,12.90
2017-11-24T02:23:17.300Z,12.90
2017-11-24T02:25:46.190Z,12.80
2017-11-24T02:28:14.506Z,12.90
2017-11-24T02:30:42.765Z,12.90
2017-11-24T02:33:11.057Z,12.90
2017-11-24T02:35:39.307Z,12.90
2017-11-24T02:38:08.319Z,12.90
2017-11-24T02:40:36.597Z,12.90
2017-11-24T02:43:04.837Z,12.90
2017-11-24T02:45:33.180Z,12.90
2017-11-24T02:48:01.461Z,13.00
2017-11-24T02:50:29.740Z,13.00
2017-11-24T02:52:57.976Z,13.00
2017-11-24T02:55:26.285Z,13.00
2017-11-24T02:57:54.540Z,13.00
2017-11-24T03:00:23.577Z,13.00
2017-11-24T03:02:51.834Z,13.00
2017-11-24T03:05:20.112Z,13.00
2017-11-24T03:07:49.116Z,12.90
2017-11-24T03:10:17.376Z,12.90
2017-11-24T03:12:46.425Z,12.90
2017-11-24T03:15:14.688Z,12.90
2017-11-24T03:17:42.960Z,12.90
2017-11-24T03:20:11.996Z,12.80
2017-11-24T03:22:40.236Z,12.80
2017-11-24T03:25:09.265Z,12.80
2017-11-24T03:27:37.521Z,12.80
2017-11-24T03:30:05.781Z,12.80
2017-11-24T03:32:34.025Z,12.80
2017-11-24T03:35:02.391Z,12.70
2017-11-24T03:37:30.637Z,12.70
2017-11-24T03:39:59.668Z,12.70
2017-11-24T03:42:27.916Z,12.60
2017-11-24T03:44:56.949Z,12.60
2017-11-24T03:47:25.204Z,12.60
2017-11-24T03:49:53.482Z,12.70
2017-11-24T03:52:22.488Z,12.60
2017-11-24T03:54:50.757Z,12.60
2017-11-24T03:57:19.778Z,12.60
2017-11-24T03:59:48.026Z,12.60
2017-11-24T04:02:17.046Z,12.50
2017-11-24T04:04:45.301Z,12.50
2017-11-24T04:07:14.336Z,12.50
2017-11-24T04:09:42.631Z,12.40
2017-11-24T04:12:10.876Z,12.40
2017-11-24T04:14:39.144Z,12.30
2017-11-24T04:17:08.164Z,12.40
2017-11-24T04:19:36.433Z,12.40
2017-11-24T04:22:05.444Z,12.40
2017-11-24T04:24:33.716Z,12.40
2017-11-24T04:27:02.727Z,12.30
2017-11-24T04:29:30.991Z,12.30
2017-11-24T04:32:00.003Z,12.30
2017-11-24T04:34:28.290Z,12.30
2017-11-24T04:36:56.550Z,12.30
2017-11-24T04:39:24.808Z,12.30
2017-11-24T04:41:53.047Z,12.30
2017-11-24T04:44:21.312Z,12.30
2017-11-24T04:46:49.572Z,12.30
2017-11-24T04:49:18.613Z,12.30
2017-11-24T04:51:46.866Z,12.30
2017-11-24T04:54:15.135Z,12.30
2017-11-24T04:56:44.173Z,12.30
2017-11-24T04:59:12.421Z,12.30
2017-11-24T05:01:40.678Z,12.40
2017-11-24T05:04:09.709Z,12.40
2017-11-24T05:06:37.963Z,12.40
2017-11-24T05:09:06.992Z,12.40
2017-11-24T05:11:35.241Z,12.40
2017-11-24T05:14:04.349Z,12.40
2017-11-24T05:16:33.351Z,12.30
2017-11-24T05:19:02.391Z,12.20
2017-11-24T05:21:30.640Z,12.20
2017-11-24T05:23:58.903Z,12.30
2017-11-24T05:26:27.936Z,12.40
2017-11-24T05:28:56.208Z,12.40
2017-11-24T05:31:24.449Z,12.30
2017-11-24T05:33:52.708Z,12.30
2017-11-24T05:36:20.960Z,12.10
2017-11-24T05:38:49.215Z,12.10
2017-11-24T05:41:18.272Z,11.80
2017-11-24T05:43:46.583Z,11.80
2017-11-24T05:46:15.618Z,12.00
2017-11-24T05:48:43.890Z,12.00
2017-11-24T05:51:12.163Z,12.10
2017-11-24T05:53:41.172Z,12.10
2017-11-24T05:56:09.437Z,12.10
2017-11-24T05:58:38.455Z,12.00
2017-11-24T06:01:06.725Z,12.00
2017-11-24T06:03:34.990Z,12.00
2017-11-24T06:06:04.114Z,11.90
2017-11-24T06:08:32.355Z,11.80
2017-11-24T06:11:00.624Z,11.90
2017-11-24T06:13:30.447Z,11.70
2017-11-24T06:15:58.708Z,11.70
2017-11-24T06:18:26.952Z,11.70
2017-11-24T06:20:55.256Z,11.60
2017-11-24T06:23:23.500Z,11.70
2017-11-24T06:25:51.776Z,11.60
2017-11-24T06:28:20.797Z,11.70
2017-11-24T06:30:49.059Z,11.70
2017-11-24T06:33:18.099Z,11.60
2017-11-24T06:35:46.360Z,11.60
2017-11-24T06:38:14.630Z,11.70
2017-11-24T06:40:42.936Z,11.70
2017-11-24T06:43:11.194Z,11.70
2017-11-24T06:45:39.449Z,11.70
2017-11-24T06:48:08.463Z,11.80
2017-11-24T06:50:37.520Z,11.70
2017-11-24T06:53:05.776Z,11.80
2017-11-24T06:55:34.052Z,11.80
2017-11-24T06:58:02.325Z,11.70
2017-11-24T07:00:30.607Z,11.70
2017-11-24T07:02:58.888Z,11.70
2017-11-24T07:05:27.136Z,11.70
2017-11-24T07:07:56.538Z,11.60
2017-11-24T07:10:25.320Z,11.60
2017-11-24T07:12:53.691Z,11.60
2017-11-24T07:15:21.947Z,11.60
2017-11-24T07:17:50.204Z,11.50
2017-11-24T07:20:18.550Z,11.50
2017-11-24T07:22:46.847Z,11.50
2017-11-24T07:25:15.084Z,11.50
2017-11-24T07:27:43.347Z,11.60
2017-11-24T07:30:11.615Z,11.50
2017-11-24T07:32:39.904Z,11.50
2017-11-24T07:35:08.175Z,11.60
2017-11-24T07:37:36.497Z,11.60
2017-11-24T07:40:04.745Z,11.60
2017-11-24T07:42:33.025Z,11.60
2017-11-24T07:45:02.026Z,11.60
2017-11-24T07:47:30.290Z,11.60
2017-11-24T07:49:59.290Z,11.70
2017-11-24T07:52:27.556Z,11.70
2017-11-24T07:54:55.804Z,11.70
2017-11-24T07:57:24.075Z,11.80
2017-11-24T07:59:52.338Z,11.80
2017-11-24T08:02:20.618Z,11.80
2017-11-24T08:04:48.864Z,11.80
2017-11-24T08:07:17.890Z,11.80
2017-11-24T08:09:46.139Z,11.80
2017-11-24T08:12:14.401Z,11.80
2017-11-24T08:14:42.652Z,11.80
2017-11-24T08:17:10.919Z,11.90
2017-11-24T08:19:39.249Z,11.90
2017-11-24T08:22:07.513Z,11.90
2017-11-24T08:24:35.923Z,12.00
2017-11-24T08:27:04.284Z,12.00
2017-11-24T08:29:32.661Z,12.10
2017-11-24T08:32:00.908Z,12.10
2017-11-24T08:34:29.218Z,12.20
2017-11-24T08:36:57.508Z,12.20
2017-11-24T08:39:25.789Z,12.20
2017-11-24T08:41:54.056Z,12.30
2017-11-24T08:44:22.325Z,12.30
2017-11-24T08:49:41.070Z,12.40
2017-11-24T08:52:09.320Z,12.40
2017-11-24T08:54:37.609Z,12.50
2017-11-24T08:57:05.835Z,12.60
2017-11-24T08:59:34.107Z,12.60
2017-11-24T09:02:03.129Z,12.80
2017-11-24T09:04:31.413Z,12.70
2017-11-24T09:07:05.001Z,12.80
2017-11-24T09:09:34.546Z,13.20
2017-11-24T09:12:02.785Z,13.20
2017-11-24T09:14:31.817Z,14.30
2017-11-24T09:17:00.082Z,14.20
2017-11-24T09:19:29.108Z,14.60
2017-11-24T09:21:57.367Z,14.60
2017-11-24T09:24:25.629Z,14.60
2017-11-24T09:26:54.654Z,14.40
2017-11-24T09:29:22.909Z,14.40
2017-11-24T09:31:51.918Z,14.30
2017-11-24T09:34:20.954Z,14.30
2017-11-24T09:36:49.205Z,14.30
2017-11-24T09:39:18.249Z,14.40
2017-11-24T09:41:46.507Z,14.40
2017-11-24T09:44:14.777Z,14.40
2017-11-24T09:46:43.901Z,14.60
2017-11-24T09:49:12.151Z,14.50
2017-11-24T09:51:40.430Z,14.60
2017-11-24T09:54:09.082Z,14.50
2017-11-24T09:56:37.409Z,14.50
2017-11-24T09:59:05.644Z,14.40
2017-11-24T10:01:33.924Z,14.30
2017-11-24T10:04:02.156Z,14.40
2017-11-24T10:06:30.415Z,14.40
2017-11-24T10:08:59.423Z,14.30
2017-11-24T10:11:27.701Z,14.30
2017-11-24T10:13:55.943Z,14.30
2017-11-24T10:16:24.967Z,14.40
2017-11-24T10:18:53.981Z,14.40
2017-11-24T10:21:27.783Z,14.30
2017-11-24T10:23:56.033Z,14.20
2017-11-24T10:26:24.299Z,14.20
2017-11-24T10:28:52.573Z,14.20
2017-11-24T10:31:20.850Z,14.20
2017-11-24T10:33:49.132Z,14.20
2017-11-24T10:36:17.401Z,14.10
2017-11-24T10:38:45.659Z,14.20
2017-11-24T10:41:13.952Z,14.20
2017-11-24T10:43:42.938Z,14.20
2017-11-24T10:46:11.199Z,14.20
2017-11-24T10:48:40.212Z,14.30
2017-11-24T10:51:08.667Z,14.20
2017-11-24T10:53:36.902Z,14.30
2017-11-24T10:56:05.165Z,14.30
2017-11-24T10:58:34.266Z,14.30
2017-11-24T11:01:03.293Z,14.30
2017-11-24T11:03:31.552Z,14.30
2017-11-24T11:06:11.717Z,14.30
2017-11-24T11:08:44.291Z,14.40
2017-11-24T11:11:12.584Z,14.40
2017-11-24T11:13:40.823Z,14.50
2017-11-24T11:16:09.086Z,14.50
2017-11-24T11:18:37.324Z,14.60
2017-11-24T11:21:05.774Z,14.60
2017-11-24T11:23:34.011Z,14.70
2017-11-24T11:26:02.296Z,14.60
2017-11-24T11:28:30.595Z,14.60
2017-11-24T11:30:58.938Z,14.60
2017-11-24T11:33:27.397Z,14.60
2017-11-24T11:35:56.429Z,14.60
2017-11-24T11:38:24.680Z,14.60
2017-11-24T11:40:53.697Z,14.60
2017-11-24T11:43:21.935Z,14.60
2017-11-24T11:45:50.219Z,14.60
2017-11-24T11:48:18.467Z,14.50
2017-11-24T11:50:46.769Z,14.50
2017-11-24T11:53:15.012Z,14.40
2017-11-24T11:55:43.273Z,14.40
2017-11-24T11:58:11.541Z,14.40
2017-11-24T12:00:40.695Z,14.50
2017-11-24T12:03:09.003Z,14.40
2017-11-24T12:05:38.979Z,14.40
2017-11-24T12:08:07.223Z,14.30
2017-11-24T12:10:36.297Z,14.30
2017-11-24T12:13:04.524Z,14.30
2017-11-24T12:15:33.543Z,14.30
2017-11-24T12:18:02.234Z,14.20
2017-11-24T12:20:30.587Z,14.30
2017-11-24T12:22:59.607Z,14.30
2017-11-24T12:25:27.887Z,14.20
2017-11-24T12:27:57.358Z,14.30
2017-11-24T12:30:26.811Z,14.30
2017-11-24T12:32:55.204Z,14.30
2017-11-24T12:35:23.453Z,14.30
2017-11-24T12:37:54.700Z,14.20
2017-11-24T12:40:26.892Z,14.20
2017-11-24T12:42:55.167Z,14.20
2017-11-24T12:45:23.416Z,14.10
2017-11-24T12:47:52.431Z,14.20
2017-11-24T12:50:25.021Z,14.10
2017-11-24T12:52:54.173Z,14.20
2017-11-24T12:55:23.207Z,14.20
2017-11-24T12:57:52.469Z,14.20
2017-11-24T13:00:20.723Z,14.10
2017-11-24T13:02:48.987Z,14.20
2017-11-24T13:05:17.238Z,14.20
2017-11-24T13:07:45.494Z,14.20
2017-11-24T13:10:13.742Z,14.20
2017-11-24T13:12:42.020Z,14.20
2017-11-24T13:15:10.329Z,14.20
2017-11-24T13:17:38.585Z,14.20
2017-11-24T13:20:06.834Z,14.30
2017-11-24T13:22:35.862Z,14.20
2017-11-24T13:25:04.105Z,14.10
2017-11-24T13:27:37.117Z,14.10
2017-11-24T13:30:06.678Z,14.10
2017-11-24T13:32:34.929Z,14.00
2017-11-24T13:35:03.181Z,14.10
2017-11-24T13:37:31.438Z,14.10
2017-11-24T13:39:59.689Z,14.10
2017-11-24T13:42:28.074Z,14.10
2017-11-24T13:44:56.313Z,14.00
2017-11-24T13:47:25.335Z,13.80
2017-11-24T13:49:53.579Z,13.80
2017-11-24T13:52:21.841Z,13.80
2017-11-24T13:54:50.091Z,13.70
2017-11-24T13:57:18.347Z,13.70
2017-11-24T13:59:47.367Z,13.80
2017-11-24T14:02:15.626Z,13.80
2017-11-24T14:04:44.644Z,13.60
2017-11-24T14:07:12.905Z,13.60
2017-11-24T14:09:41.144Z,13.40
2017-11-24T14:12:09.408Z,13.20
2017-11-24T14:14:42.689Z,13.30
2017-11-24T14:17:11.964Z,13.30
2017-11-24T14:19:40.984Z,13.40
2017-11-24T14:22:09.282Z,13.30
2017-11-24T14:24:37.567Z,13.40
2017-11-24T14:27:05.815Z,13.30
2017-11-24T14:29:34.061Z,13.30
2017-11-24T14:32:02.331Z,13.20
2017-11-24T14:34:30.577Z,13.10
2017-11-24T14:36:58.857Z,13.10
2017-11-24T14:39:27.111Z,13.20
2017-11-24T14:41:56.146Z,12.90
2017-11-24T14:44:24.388Z,12.90
2017-11-24T14:46:53.415Z,12.90
2017-11-24T14:49:21.673Z,13.00
2017-11-24T14:51:50.684Z,13.10
2017-11-24T14:54:18.930Z,13.10
2017-11-24T14:56:47.193Z,13.10
2017-11-24T14:59:15.471Z,13.20
2017-11-24T15:01:43.757Z,13.00
2017-11-24T15:04:12.017Z,12.90
2017-11-24T15:06:40.284Z,13.00
2017-11-24T15:09:08.531Z,13.00
2017-11-24T15:11:37.559Z,13.00
2017-11-24T15:14:05.803Z,13.00
2017-11-24T15:16:34.835Z,13.00
2017-11-24T15:19:03.091Z,13.00
2017-11-24T15:21:32.123Z,13.00
2017-11-24T15:24:00.363Z,13.00
2017-11-24T15:26:28.645Z,13.00
2017-11-24T15:28:57.661Z,12.90
2017-11-24T15:31:26.687Z,12.90
2017-11-24T15:33:54.927Z,12.90
2017-11-24T15:36:23.953Z,12.90
2017-11-24T15:38:52.200Z,12.90
2017-11-24T15:41:21.233Z,12.90
2017-11-24T15:43:49.505Z,12.90
2017-11-24T15:46:17.759Z,12.80
2017-11-24T15:48:46.781Z,12.80
2017-11-24T15:51:15.063Z,12.70
2017-11-24T15:53:44.081Z,12.80
2017-11-24T15:56:12.336Z,12.80
2017-11-24T15:58:41.372Z,12.70
2017-11-24T16:01:09.640Z,12.70
2017-11-24T16:03:37.910Z,12.80
2017-11-24T16:06:06.921Z,12.70
2017-11-24T16:08:35.176Z,12.70
2017-11-24T16:11:04.192Z,12.60
2017-11-24T16:13:32.452Z,12.60
2017-11-24T16:16:01.460Z,12.60
2017-11-24T16:18:30.479Z,12.60
2017-11-24T16:21:09.371Z,12.50
2017-11-24T16:23:38.352Z,12.60
2017-11-24T16:26:06.612Z,12.50
2017-11-24T16:28:34.904Z,12.50
2017-11-24T16:31:03.162Z,12.40
2017-11-24T16:33:31.456Z,12.40
2017-11-24T16:35:59.706Z,12.40
2017-11-24T16:38:27.967Z,12.40
2017-11-24T16:40:56.984Z,12.40
2017-11-24T16:43:25.244Z,12.40
2017-11-24T16:45:54.276Z,12.30
2017-11-24T16:48:22.535Z,12.30
2017-11-24T16:50:51.553Z,12.30
2017-11-24T16:53:19.825Z,12.30
2017-11-24T16:55:48.122Z,12.20
2017-11-24T16:58:16.389Z,12.20
2017-11-24T17:00:44.638Z,12.20
2017-11-24T17:03:12.907Z,12.20
2017-11-24T17:05:42.080Z,12.10
2017-11-24T17:08:10.361Z,12.20
2017-11-24T17:10:38.633Z,12.20
2017-11-24T17:13:06.940Z,12.20
2017-11-24T17:15:35.187Z,12.20
2017-11-24T17:18:03.461Z,12.20
2017-11-24T17:20:31.760Z,12.20
2017-11-24T17:23:00.039Z,12.30
2017-11-24T17:25:28.357Z,12.30
2017-11-24T17:27:56.641Z,12.30
2017-11-24T17:30:24.920Z,12.20
2017-11-24T17:32:53.276Z,12.20
2017-11-24T17:35:21.635Z,12.10
2017-11-24T17:37:49.901Z,12.10
2017-11-24T17:40:18.164Z,12.10
2017-11-24T17:42:46.420Z,12.00
2017-11-24T17:45:14.698Z,12.00
2017-11-24T17:47:43.072Z,12.00
2017-11-24T17:50:11.355Z,12.00
2017-11-24T17:52:39.611Z,12.00
2017-11-24T17:55:07.884Z,11.90
2017-11-24T17:57:36.171Z,11.90
2017-11-24T18:00:04.432Z,11.90
2017-11-24T18:02:32.700Z,11.90
2017-11-24T18:05:01.707Z,11.90
2017-11-24T18:07:30.739Z,11.90
2017-11-24T18:09:58.993Z,11.90
2017-11-24T18:12:27.267Z,11.90
2017-11-24T18:14:55.519Z,11.90
2017-11-24T18:17:23.793Z,11.90
2017-11-24T18:19:52.053Z,11.90
2017-11-24T18:22:20.312Z,11.80
2017-11-24T18:24:48.603Z,11.80
2017-11-24T18:27:16.874Z,11.80
2017-11-24T18:29:45.289Z,11.80
2017-11-24T18:32:13.573Z,11.60
2017-11-24T18:34:41.828Z,11.60
2017-11-24T18:37:10.139Z,11.70
2017-11-24T18:39:38.393Z,11.70
2017-11-24T18:42:06.662Z,11.70
2017-11-24T18:44:34.917Z,11.80
2017-11-24T18:47:03.956Z,11.80
2017-11-24T18:49:32.217Z,11.80
2017-11-24T18:52:00.488Z,11.80
2017-11-24T18:54:29.505Z,11.90
2017-11-24T18:56:57.754Z,11.90
2017-11-24T18:59:26.787Z,11.90
2017-11-24T19:01:55.076Z,11.90
2017-11-24T19:04:23.349Z,11.90
2017-11-24T19:06:51.636Z,12.00
2017-11-24T19:09:19.899Z,11.90
2017-11-24T19:11:48.158Z,11.80
2017-11-24T19:14:17.191Z,11.90
2017-11-24T19:16:45.440Z,11.90
2017-11-24T19:19:14.471Z,11.90
2017-11-24T19:21:42.731Z,11.90
2017-11-24T19:24:11.807Z,11.80
2017-11-24T19:26:40.092Z,11.80
2017-11-24T19:29:09.274Z,11.70
2017-11-24T19:31:37.525Z,11.70
2017-11-24T19:34:05.796Z,11.70
2017-11-24T19:36:34.066Z,11.70
2017-11-24T19:39:02.359Z,11.70
2017-11-24T19:41:30.613Z,11.70
2017-11-24T19:43:59.665Z,11.70
2017-11-24T19:46:27.965Z,11.70
2017-11-24T19:48:56.224Z,11.60
2017-11-24T19:51:24.492Z,11.50
2017-11-24T19:53:52.767Z,11.50
2017-11-24T19:56:21.028Z,11.60
2017-11-24T19:58:49.313Z,11.50
2017-11-24T20:01:17.568Z,11.50
2017-11-24T20:03:46.624Z,11.50
2017-11-24T20:06:14.887Z,11.50
2017-11-24T20:08:43.159Z,11.40
2017-11-24T20:11:11.467Z,11.40
2017-11-24T20:13:39.744Z,11.30
2017-11-24T20:16:08.017Z,11.30
2017-11-24T20:18:36.316Z,11.20
2017-11-24T20:21:04.580Z,11.20
2017-11-24T20:23:32.882Z,11.20
2017-11-24T20:26:01.136Z,11.10
2017-11-24T20:28:29.411Z,11.10
2017-11-24T20:30:57.781Z,11.10
2017-11-24T20:33:26.820Z,11.10
2017-11-24T20:35:55.095Z,11.00
2017-11-24T20:38:23.384Z,11.00
2017-11-24T20:41:03.520Z,11.00
2017-11-24T20:43:31.849Z,11.00
2017-11-24T20:46:00.108Z,11.10
2017-11-24T20:48:28.420Z,11.10
2017-11-24T20:50:56.691Z,11.10
2017-11-24T20:53:24.971Z,11.10
2017-11-24T20:55:53.340Z,11.10
2017-11-24T20:58:21.630Z,11.00
2017-11-24T21:00:49.897Z,10.90
2017-11-24T21:03:18.163Z,11.00
2017-11-24T21:05:46.488Z,10.90
2017-11-24T21:08:14.761Z,10.90
2017-11-24T21:10:43.037Z,10.90
2017-11-24T21:13:11.375Z,10.90
2017-11-24T21:15:40.411Z,11.00
2017-11-24T21:18:08.689Z,11.00
2017-11-24T21:20:36.936Z,11.00
2017-11-24T21:23:05.214Z,11.00
2017-11-24T21:25:33.473Z,11.00
2017-11-24T21:28:02.519Z,11.00
2017-11-24T21:30:30.824Z,11.00
2017-11-24T21:32:59.193Z,11.00
2017-11-24T21:35:27.463Z,11.00
2017-11-24T21:37:55.744Z,11.00
2017-11-24T21:40:24.070Z,11.00
2017-11-24T21:42:52.328Z,11.00
2017-11-24T21:45:20.596Z,11.00
2017-11-24T21:47:48.873Z,11.00
2017-11-24T21:50:17.135Z,11.00
2017-11-24T21:52:45.419Z,11.00
2017-11-24T21:55:13.684Z,11.00
2017-11-24T21:57:42.729Z,11.10
2017-11-24T22:00:11.006Z,11.00
2017-11-24T22:02:39.260Z,11.00
2017-11-24T22:05:07.657Z,11.00
2017-11-24T22:07:35.913Z,11.00
2017-11-24T22:10:04.191Z,11.10
2017-11-24T22:12:32.449Z,11.00
2017-11-24T22:15:00.758Z,11.10
2017-11-24T22:17:29.001Z,11.10
2017-11-24T22:19:57.263Z,11.00
2017-11-24T22:22:25.521Z,11.00
2017-11-24T22:24:53.796Z,11.00
2017-11-24T22:27:22.065Z,11.00
2017-11-24T22:29:50.348Z,11.00
2017-11-24T22:32:18.607Z,11.00
2017-11-24T22:34:47.646Z,11.00
2017-11-24T22:37:15.899Z,11.00
2017-11-24T22:39:44.187Z,11.00
2017-11-24T22:42:12.453Z,11.00
2017-11-24T22:44:41.482Z,11.00
2017-11-24T22:47:09.746Z,11.00
2017-11-24T22:49:38.016Z,11.00
2017-11-24T22:52:07.046Z,10.90
2017-11-24T22:54:35.317Z,10.90
2017-11-24T22:57:03.588Z,10.90
2017-11-24T22:59:32.621Z,10.90
2017-11-24T23:02:00.889Z,10.90
2017-11-24T23:04:29.151Z,10.90
2017-11-24T23:06:57.420Z,10.90
2017-11-24T23:09:26.461Z,10.90
2017-11-24T23:11:54.736Z,10.90
2017-11-24T23:14:23.017Z,10.90
2017-11-24T23:16:51.274Z,10.90
2017-11-24T23:19:19.550Z,10.90
2017-11-24T23:21:48.563Z,10.80
2017-11-24T23:24:16.836Z,10.80
2017-11-24T23:26:45.088Z,10.80
2017-11-24T23:29:14.124Z,10.80
2017-11-24T23:31:42.375Z,10.80
2017-11-24T23:34:10.662Z,10.80
2017-11-24T23:36:38.928Z,10.80
2017-11-24T23:39:07.200Z,10.80
2017-11-24T23:41:35.462Z,10.80
2017-11-24T23:44:03.732Z,10.90
2017-11-24T23:46:31.995Z,10.80
2017-11-24T23:49:00.277Z,10.90
2017-11-24T23:51:28.584Z,10.80
2017-11-24T23:53:57.765Z,10.80
2017-11-24T23:56:26.060Z,10.80
2017-11-24T23:58:54.344Z,10.80
